sensor_id;sensor_type;location;lat;lon;timestamp;P1;durP1;ratioP1;P2;durP2;ratioP2
58784;SDS011;44557;51.862;19.378;2022-12-18T00:00:42;51.70;;;26.80;;
58784;SDS011;44557;51.862;19.378;2022-12-18T00:02:04;54.50;;;26.70;;
58784;SDS011;44557;51.862;19.378;2022-12-18T00:03:06;50.10;;;25.90;;
58784;SDS011;44557;51.862;19.378;2022-12-18T00:04:11;53.10;;;26.60;;
58784;SDS011;44557;51.862;19.378;2022-12-18T00:05:19;49.70;;;25.60;;
58784;SDS011;44557;51.862;19.378;2022-12-18T00:06:21;49.40;;;25.50;;
58784;SDS011;44557;51.862;19.378;2022-12-18T00:07:24;52.00;;;25.90;;
58784;SDS011;44557;51.862;19.378;2022-12-18T00:08:25;52.80;;;27.20;;
58784;SDS011;44557;51.862;19.378;2022-12-18T00:09:27;55.00;;;27.00;;
58784;SDS011;44557;51.862;19.378;2022-12-18T00:10:29;51.90;;;28.20;;
58784;SDS011;44557;51.862;19.378;2022-12-18T00:11:30;49.90;;;25.40;;
58784;SDS011;44557;51.862;19.378;2022-12-18T00:12:32;55.20;;;27.50;;
58784;SDS011;44557;51.862;19.378;2022-12-18T00:13:34;50.90;;;26.20;;
58784;SDS011;44557;51.862;19.378;2022-12-18T00:14:36;53.10;;;26.10;;
58784;SDS011;44557;51.862;19.378;2022-12-18T00:15:38;51.60;;;26.00;;
58784;SDS011;44557;51.862;19.378;2022-12-18T00:16:42;51.80;;;25.70;;
58784;SDS011;44557;51.862;19.378;2022-12-18T00:17:45;54.10;;;26.90;;
58784;SDS011;44557;51.862;19.378;2022-12-18T00:18:47;55.70;;;27.60;;
58784;SDS011;44557;51.862;19.378;2022-12-18T00:19:50;53.40;;;26.70;;
58784;SDS011;44557;51.862;19.378;2022-12-18T00:20:52;52.40;;;27.20;;
58784;SDS011;44557;51.862;19.378;2022-12-18T00:21:53;50.10;;;24.60;;
58784;SDS011;44557;51.862;19.378;2022-12-18T00:22:55;47.10;;;25.80;;
58784;SDS011;44557;51.862;19.378;2022-12-18T00:23:57;51.80;;;26.50;;
58784;SDS011;44557;51.862;19.378;2022-12-18T00:24:59;49.40;;;25.70;;
58784;SDS011;44557;51.862;19.378;2022-12-18T00:26:02;48.80;;;25.90;;
58784;SDS011;44557;51.862;19.378;2022-12-18T00:27:06;50.50;;;27.00;;
58784;SDS011;44557;51.862;19.378;2022-12-18T00:28:08;52.30;;;25.30;;
58784;SDS011;44557;51.862;19.378;2022-12-18T00:29:10;50.40;;;26.10;;
58784;SDS011;44557;51.862;19.378;2022-12-18T00:30:14;49.20;;;26.10;;
58784;SDS011;44557;51.862;19.378;2022-12-18T00:31:17;47.80;;;25.50;;
58784;SDS011;44557;51.862;19.378;2022-12-18T00:32:23;49.20;;;24.70;;
58784;SDS011;44557;51.862;19.378;2022-12-18T00:33:25;51.80;;;26.50;;
58784;SDS011;44557;51.862;19.378;2022-12-18T00:34:26;50.90;;;26.50;;
58784;SDS011;44557;51.862;19.378;2022-12-18T00:35:28;44.90;;;23.70;;
58784;SDS011;44557;51.862;19.378;2022-12-18T00:36:31;49.00;;;26.00;;
58784;SDS011;44557;51.862;19.378;2022-12-18T00:37:34;48.20;;;25.80;;
58784;SDS011;44557;51.862;19.378;2022-12-18T00:38:36;52.30;;;25.70;;
58784;SDS011;44557;51.862;19.378;2022-12-18T00:39:38;47.00;;;25.10;;
58784;SDS011;44557;51.862;19.378;2022-12-18T00:40:40;49.20;;;25.10;;
58784;SDS011;44557;51.862;19.378;2022-12-18T00:41:41;50.30;;;26.20;;
58784;SDS011;44557;51.862;19.378;2022-12-18T00:43:02;44.80;;;23.90;;
58784;SDS011;44557;51.862;19.378;2022-12-18T00:44:04;45.30;;;23.40;;
58784;SDS011;44557;51.862;19.378;2022-12-18T00:45:06;48.00;;;25.50;;
58784;SDS011;44557;51.862;19.378;2022-12-18T00:46:08;48.20;;;25.10;;
58784;SDS011;44557;51.862;19.378;2022-12-18T00:47:10;48.70;;;25.10;;
58784;SDS011;44557;51.862;19.378;2022-12-18T00:48:11;45.10;;;24.30;;
58784;SDS011;44557;51.862;19.378;2022-12-18T00:49:13;47.30;;;25.10;;
58784;SDS011;44557;51.862;19.378;2022-12-18T00:50:15;47.30;;;26.00;;
58784;SDS011;44557;51.862;19.378;2022-12-18T00:51:17;47.70;;;24.00;;
58784;SDS011;44557;51.862;19.378;2022-12-18T00:52:19;48.40;;;25.10;;
58784;SDS011;44557;51.862;19.378;2022-12-18T00:53:20;48.50;;;25.70;;
58784;SDS011;44557;51.862;19.378;2022-12-18T00:54:22;46.50;;;25.00;;
58784;SDS011;44557;51.862;19.378;2022-12-18T00:55:24;47.10;;;24.90;;
58784;SDS011;44557;51.862;19.378;2022-12-18T00:56:25;48.30;;;24.70;;
58784;SDS011;44557;51.862;19.378;2022-12-18T00:57:27;47.70;;;25.20;;
58784;SDS011;44557;51.862;19.378;2022-12-18T00:58:30;46.70;;;24.70;;
58784;SDS011;44557;51.862;19.378;2022-12-18T00:59:32;46.40;;;25.80;;
58784;SDS011;44557;51.862;19.378;2022-12-18T01:00:33;47.20;;;25.00;;
58784;SDS011;44557;51.862;19.378;2022-12-18T01:01:36;46.30;;;24.30;;
58784;SDS011;44557;51.862;19.378;2022-12-18T01:02:38;49.60;;;25.10;;
58784;SDS011;44557;51.862;19.378;2022-12-18T01:03:40;51.10;;;24.60;;
58784;SDS011;44557;51.862;19.378;2022-12-18T01:04:41;47.10;;;24.80;;
58784;SDS011;44557;51.862;19.378;2022-12-18T01:05:43;46.30;;;24.00;;
58784;SDS011;44557;51.862;19.378;2022-12-18T01:06:45;43.60;;;22.70;;
58784;SDS011;44557;51.862;19.378;2022-12-18T01:07:46;46.40;;;24.60;;
58784;SDS011;44557;51.862;19.378;2022-12-18T01:08:48;44.80;;;24.00;;
58784;SDS011;44557;51.862;19.378;2022-12-18T01:09:49;50.10;;;27.10;;
58784;SDS011;44557;51.862;19.378;2022-12-18T01:10:51;46.80;;;24.90;;
58784;SDS011;44557;51.862;19.378;2022-12-18T01:11:52;45.50;;;23.50;;
58784;SDS011;44557;51.862;19.378;2022-12-18T01:12:54;51.10;;;25.60;;
58784;SDS011;44557;51.862;19.378;2022-12-18T01:13:56;47.70;;;25.40;;
58784;SDS011;44557;51.862;19.378;2022-12-18T01:15:01;46.50;;;23.90;;
58784;SDS011;44557;51.862;19.378;2022-12-18T01:16:03;45.90;;;25.90;;
58784;SDS011;44557;51.862;19.378;2022-12-18T01:17:05;47.90;;;25.30;;
58784;SDS011;44557;51.862;19.378;2022-12-18T01:18:07;41.00;;;22.70;;
58784;SDS011;44557;51.862;19.378;2022-12-18T01:19:08;45.70;;;23.30;;
58784;SDS011;44557;51.862;19.378;2022-12-18T01:20:11;44.60;;;24.50;;
58784;SDS011;44557;51.862;19.378;2022-12-18T01:21:14;45.50;;;24.10;;
58784;SDS011;44557;51.862;19.378;2022-12-18T01:22:17;50.30;;;25.30;;
58784;SDS011;44557;51.862;19.378;2022-12-18T01:23:18;48.30;;;25.20;;
58784;SDS011;44557;51.862;19.378;2022-12-18T01:24:20;52.40;;;25.60;;
58784;SDS011;44557;51.862;19.378;2022-12-18T01:25:21;45.30;;;22.90;;
58784;SDS011;44557;51.862;19.378;2022-12-18T01:26:23;49.10;;;25.00;;
58784;SDS011;44557;51.862;19.378;2022-12-18T01:27:26;41.80;;;22.40;;
58784;SDS011;44557;51.862;19.378;2022-12-18T01:28:27;45.40;;;25.40;;
58784;SDS011;44557;51.862;19.378;2022-12-18T01:29:29;46.80;;;22.90;;
58784;SDS011;44557;51.862;19.378;2022-12-18T01:30:31;46.30;;;24.00;;
58784;SDS011;44557;51.862;19.378;2022-12-18T01:31:33;46.90;;;24.20;;
58784;SDS011;44557;51.862;19.378;2022-12-18T01:32:35;47.60;;;25.00;;
58784;SDS011;44557;51.862;19.378;2022-12-18T01:33:36;44.90;;;24.40;;
58784;SDS011;44557;51.862;19.378;2022-12-18T01:34:38;48.20;;;25.80;;
58784;SDS011;44557;51.862;19.378;2022-12-18T01:35:42;46.50;;;24.50;;
58784;SDS011;44557;51.862;19.378;2022-12-18T01:36:44;45.70;;;24.20;;
58784;SDS011;44557;51.862;19.378;2022-12-18T01:37:46;47.40;;;24.80;;
58784;SDS011;44557;51.862;19.378;2022-12-18T01:38:47;50.30;;;24.40;;
58784;SDS011;44557;51.862;19.378;2022-12-18T01:39:49;48.20;;;25.30;;
58784;SDS011;44557;51.862;19.378;2022-12-18T01:41:00;46.80;;;24.70;;
58784;SDS011;44557;51.862;19.378;2022-12-18T01:42:02;45.30;;;24.30;;
58784;SDS011;44557;51.862;19.378;2022-12-18T01:43:04;44.30;;;23.60;;
58784;SDS011;44557;51.862;19.378;2022-12-18T01:44:46;45.20;;;23.30;;
58784;SDS011;44557;51.862;19.378;2022-12-18T01:45:46;44.10;;;24.20;;
58784;SDS011;44557;51.862;19.378;2022-12-18T01:46:47;45.40;;;23.40;;
58784;SDS011;44557;51.862;19.378;2022-12-18T01:47:56;48.30;;;24.40;;
58784;SDS011;44557;51.862;19.378;2022-12-18T01:49:01;45.90;;;24.10;;
58784;SDS011;44557;51.862;19.378;2022-12-18T01:51:24;49.00;;;23.60;;
58784;SDS011;44557;51.862;19.378;2022-12-18T01:52:28;46.30;;;24.30;;
58784;SDS011;44557;51.862;19.378;2022-12-18T01:53:31;48.20;;;25.50;;
58784;SDS011;44557;51.862;19.378;2022-12-18T01:54:33;47.40;;;24.80;;
58784;SDS011;44557;51.862;19.378;2022-12-18T01:55:36;47.20;;;23.70;;
58784;SDS011;44557;51.862;19.378;2022-12-18T01:56:44;44.80;;;23.60;;
58784;SDS011;44557;51.862;19.378;2022-12-18T01:57:46;47.60;;;24.60;;
58784;SDS011;44557;51.862;19.378;2022-12-18T01:58:50;49.60;;;25.90;;
58784;SDS011;44557;51.862;19.378;2022-12-18T01:59:59;48.90;;;25.30;;
58784;SDS011;44557;51.862;19.378;2022-12-18T02:01:03;49.40;;;24.70;;
58784;SDS011;44557;51.862;19.378;2022-12-18T02:02:04;43.70;;;24.20;;
58784;SDS011;44557;51.862;19.378;2022-12-18T02:03:07;48.30;;;25.50;;
58784;SDS011;44557;51.862;19.378;2022-12-18T02:04:18;47.10;;;24.30;;
58784;SDS011;44557;51.862;19.378;2022-12-18T02:05:35;46.80;;;25.00;;
58784;SDS011;44557;51.862;19.378;2022-12-18T02:06:45;48.60;;;25.60;;
58784;SDS011;44557;51.862;19.378;2022-12-18T02:09:24;43.50;;;23.70;;
58784;SDS011;44557;51.862;19.378;2022-12-18T02:10:45;47.30;;;24.90;;
58784;SDS011;44557;51.862;19.378;2022-12-18T02:13:20;45.50;;;23.70;;
58784;SDS011;44557;51.862;19.378;2022-12-18T02:14:23;49.40;;;25.40;;
58784;SDS011;44557;51.862;19.378;2022-12-18T02:15:59;46.00;;;22.90;;
58784;SDS011;44557;51.862;19.378;2022-12-18T02:17:17;44.30;;;22.50;;
58784;SDS011;44557;51.862;19.378;2022-12-18T02:18:23;45.60;;;25.10;;
58784;SDS011;44557;51.862;19.378;2022-12-18T02:19:44;42.00;;;23.00;;
58784;SDS011;44557;51.862;19.378;2022-12-18T02:22:41;42.50;;;23.40;;
58784;SDS011;44557;51.862;19.378;2022-12-18T02:23:56;45.70;;;23.80;;
58784;SDS011;44557;51.862;19.378;2022-12-18T02:26:37;43.80;;;23.20;;
58784;SDS011;44557;51.862;19.378;2022-12-18T02:27:46;43.00;;;22.90;;
58784;SDS011;44557;51.862;19.378;2022-12-18T02:28:54;45.00;;;23.50;;
58784;SDS011;44557;51.862;19.378;2022-12-18T02:30:02;44.40;;;24.20;;
58784;SDS011;44557;51.862;19.378;2022-12-18T02:31:06;44.00;;;23.10;;
58784;SDS011;44557;51.862;19.378;2022-12-18T02:32:16;43.90;;;23.50;;
58784;SDS011;44557;51.862;19.378;2022-12-18T02:33:24;42.90;;;23.20;;
58784;SDS011;44557;51.862;19.378;2022-12-18T02:34:29;46.60;;;25.30;;
58784;SDS011;44557;51.862;19.378;2022-12-18T02:35:33;46.60;;;24.00;;
58784;SDS011;44557;51.862;19.378;2022-12-18T02:36:37;44.30;;;22.60;;
58784;SDS011;44557;51.862;19.378;2022-12-18T02:37:42;47.00;;;25.50;;
58784;SDS011;44557;51.862;19.378;2022-12-18T02:38:46;41.90;;;22.30;;
58784;SDS011;44557;51.862;19.378;2022-12-18T02:39:49;45.70;;;24.40;;
58784;SDS011;44557;51.862;19.378;2022-12-18T02:40:53;43.50;;;23.40;;
58784;SDS011;44557;51.862;19.378;2022-12-18T02:41:56;44.90;;;23.00;;
58784;SDS011;44557;51.862;19.378;2022-12-18T02:43:17;46.20;;;24.10;;
58784;SDS011;44557;51.862;19.378;2022-12-18T02:44:19;44.90;;;22.90;;
58784;SDS011;44557;51.862;19.378;2022-12-18T02:45:21;43.10;;;23.00;;
58784;SDS011;44557;51.862;19.378;2022-12-18T02:47:32;39.80;;;21.40;;
58784;SDS011;44557;51.862;19.378;2022-12-18T02:48:38;44.30;;;23.60;;
58784;SDS011;44557;51.862;19.378;2022-12-18T02:49:43;44.00;;;22.40;;
58784;SDS011;44557;51.862;19.378;2022-12-18T02:53:28;43.70;;;23.60;;
58784;SDS011;44557;51.862;19.378;2022-12-18T02:57:12;41.40;;;21.90;;
58784;SDS011;44557;51.862;19.378;2022-12-18T02:59:18;42.30;;;22.40;;
58784;SDS011;44557;51.862;19.378;2022-12-18T03:01:49;43.40;;;22.90;;
58784;SDS011;44557;51.862;19.378;2022-12-18T03:03:01;43.90;;;22.70;;
58784;SDS011;44557;51.862;19.378;2022-12-18T03:04:16;42.60;;;22.10;;
58784;SDS011;44557;51.862;19.378;2022-12-18T03:05:33;44.40;;;23.40;;
58784;SDS011;44557;51.862;19.378;2022-12-18T03:06:40;41.70;;;22.40;;
58784;SDS011;44557;51.862;19.378;2022-12-18T03:08:06;40.40;;;22.40;;
58784;SDS011;44557;51.862;19.378;2022-12-18T03:10:31;43.80;;;23.40;;
58784;SDS011;44557;51.862;19.378;2022-12-18T03:11:37;43.40;;;22.70;;
58784;SDS011;44557;51.862;19.378;2022-12-18T03:13:06;45.20;;;23.20;;
58784;SDS011;44557;51.862;19.378;2022-12-18T03:14:11;45.60;;;22.60;;
58784;SDS011;44557;51.862;19.378;2022-12-18T03:15:19;40.30;;;23.30;;
58784;SDS011;44557;51.862;19.378;2022-12-18T03:16:26;42.60;;;23.80;;
58784;SDS011;44557;51.862;19.378;2022-12-18T03:17:33;44.80;;;24.20;;
58784;SDS011;44557;51.862;19.378;2022-12-18T03:18:38;45.20;;;23.30;;
58784;SDS011;44557;51.862;19.378;2022-12-18T03:19:46;43.80;;;23.40;;
58784;SDS011;44557;51.862;19.378;2022-12-18T03:20:49;42.70;;;23.50;;
58784;SDS011;44557;51.862;19.378;2022-12-18T03:21:56;44.90;;;23.50;;
58784;SDS011;44557;51.862;19.378;2022-12-18T03:22:59;43.20;;;23.60;;
58784;SDS011;44557;51.862;19.378;2022-12-18T03:24:07;43.10;;;22.40;;
58784;SDS011;44557;51.862;19.378;2022-12-18T03:25:12;42.00;;;23.20;;
58784;SDS011;44557;51.862;19.378;2022-12-18T03:26:16;41.40;;;21.40;;
58784;SDS011;44557;51.862;19.378;2022-12-18T03:27:21;45.50;;;23.30;;
58784;SDS011;44557;51.862;19.378;2022-12-18T03:28:26;43.80;;;23.70;;
58784;SDS011;44557;51.862;19.378;2022-12-18T03:29:35;44.70;;;23.30;;
58784;SDS011;44557;51.862;19.378;2022-12-18T03:30:40;44.80;;;24.80;;
58784;SDS011;44557;51.862;19.378;2022-12-18T03:31:45;42.10;;;23.90;;
58784;SDS011;44557;51.862;19.378;2022-12-18T03:33:01;40.60;;;22.30;;
58784;SDS011;44557;51.862;19.378;2022-12-18T03:34:09;41.10;;;22.60;;
58784;SDS011;44557;51.862;19.378;2022-12-18T03:35:16;45.30;;;24.20;;
58784;SDS011;44557;51.862;19.378;2022-12-18T03:36:22;44.70;;;24.60;;
58784;SDS011;44557;51.862;19.378;2022-12-18T03:37:24;42.60;;;22.90;;
58784;SDS011;44557;51.862;19.378;2022-12-18T03:38:26;44.90;;;23.80;;
58784;SDS011;44557;51.862;19.378;2022-12-18T03:39:28;46.70;;;25.60;;
58784;SDS011;44557;51.862;19.378;2022-12-18T03:40:33;44.10;;;24.10;;
58784;SDS011;44557;51.862;19.378;2022-12-18T03:43:02;46.30;;;24.70;;
58784;SDS011;44557;51.862;19.378;2022-12-18T03:44:14;48.20;;;25.10;;
58784;SDS011;44557;51.862;19.378;2022-12-18T03:45:36;43.90;;;23.80;;
58784;SDS011;44557;51.862;19.378;2022-12-18T03:48:18;47.00;;;25.00;;
58784;SDS011;44557;51.862;19.378;2022-12-18T03:49:35;46.00;;;23.50;;
58784;SDS011;44557;51.862;19.378;2022-12-18T03:51:52;47.90;;;25.70;;
58784;SDS011;44557;51.862;19.378;2022-12-18T03:53:08;44.40;;;25.10;;
58784;SDS011;44557;51.862;19.378;2022-12-18T03:54:35;44.80;;;24.50;;
58784;SDS011;44557;51.862;19.378;2022-12-18T03:55:38;48.60;;;26.60;;
58784;SDS011;44557;51.862;19.378;2022-12-18T03:56:45;47.90;;;26.00;;
58784;SDS011;44557;51.862;19.378;2022-12-18T03:57:50;50.90;;;26.20;;
58784;SDS011;44557;51.862;19.378;2022-12-18T03:58:54;49.40;;;25.60;;
58784;SDS011;44557;51.862;19.378;2022-12-18T04:00:16;49.40;;;25.80;;
58784;SDS011;44557;51.862;19.378;2022-12-18T04:01:19;47.60;;;24.70;;
58784;SDS011;44557;51.862;19.378;2022-12-18T04:02:26;51.30;;;27.40;;
58784;SDS011;44557;51.862;19.378;2022-12-18T04:03:30;50.80;;;25.70;;
58784;SDS011;44557;51.862;19.378;2022-12-18T04:04:34;48.60;;;25.40;;
58784;SDS011;44557;51.862;19.378;2022-12-18T04:05:39;51.40;;;26.30;;
58784;SDS011;44557;51.862;19.378;2022-12-18T04:06:44;51.30;;;26.10;;
58784;SDS011;44557;51.862;19.378;2022-12-18T04:07:48;51.80;;;27.70;;
58784;SDS011;44557;51.862;19.378;2022-12-18T04:08:53;50.10;;;26.10;;
58784;SDS011;44557;51.862;19.378;2022-12-18T04:09:56;48.20;;;27.90;;
58784;SDS011;44557;51.862;19.378;2022-12-18T04:11:00;53.10;;;27.30;;
58784;SDS011;44557;51.862;19.378;2022-12-18T04:12:03;50.70;;;27.00;;
58784;SDS011;44557;51.862;19.378;2022-12-18T04:13:04;51.00;;;27.30;;
58784;SDS011;44557;51.862;19.378;2022-12-18T04:14:06;49.70;;;26.50;;
58784;SDS011;44557;51.862;19.378;2022-12-18T04:15:08;51.20;;;27.10;;
58784;SDS011;44557;51.862;19.378;2022-12-18T04:16:11;51.40;;;28.00;;
58784;SDS011;44557;51.862;19.378;2022-12-18T04:17:12;51.10;;;26.60;;
58784;SDS011;44557;51.862;19.378;2022-12-18T04:18:14;50.70;;;27.40;;
58784;SDS011;44557;51.862;19.378;2022-12-18T04:19:15;51.00;;;26.60;;
58784;SDS011;44557;51.862;19.378;2022-12-18T04:20:17;54.20;;;29.20;;
58784;SDS011;44557;51.862;19.378;2022-12-18T04:21:19;55.70;;;28.60;;
58784;SDS011;44557;51.862;19.378;2022-12-18T04:22:21;49.80;;;27.20;;
58784;SDS011;44557;51.862;19.378;2022-12-18T04:23:23;52.50;;;27.20;;
58784;SDS011;44557;51.862;19.378;2022-12-18T04:24:24;54.30;;;29.70;;
58784;SDS011;44557;51.862;19.378;2022-12-18T04:25:26;55.30;;;29.50;;
58784;SDS011;44557;51.862;19.378;2022-12-18T04:26:27;55.30;;;29.30;;
58784;SDS011;44557;51.862;19.378;2022-12-18T04:27:29;52.30;;;28.90;;
58784;SDS011;44557;51.862;19.378;2022-12-18T04:28:30;52.30;;;29.10;;
58784;SDS011;44557;51.862;19.378;2022-12-18T04:29:32;53.10;;;28.20;;
58784;SDS011;44557;51.862;19.378;2022-12-18T04:30:33;52.60;;;28.40;;
58784;SDS011;44557;51.862;19.378;2022-12-18T04:31:35;50.90;;;26.40;;
58784;SDS011;44557;51.862;19.378;2022-12-18T04:32:36;50.80;;;27.80;;
58784;SDS011;44557;51.862;19.378;2022-12-18T04:33:38;53.20;;;26.90;;
58784;SDS011;44557;51.862;19.378;2022-12-18T04:34:39;55.00;;;29.60;;
58784;SDS011;44557;51.862;19.378;2022-12-18T04:35:41;55.90;;;28.50;;
58784;SDS011;44557;51.862;19.378;2022-12-18T04:36:43;56.40;;;28.30;;
58784;SDS011;44557;51.862;19.378;2022-12-18T04:37:45;54.40;;;28.60;;
58784;SDS011;44557;51.862;19.378;2022-12-18T04:38:46;51.10;;;27.50;;
58784;SDS011;44557;51.862;19.378;2022-12-18T04:39:48;47.10;;;25.30;;
58784;SDS011;44557;51.862;19.378;2022-12-18T04:40:50;49.10;;;27.00;;
58784;SDS011;44557;51.862;19.378;2022-12-18T04:41:51;50.80;;;26.40;;
58784;SDS011;44557;51.862;19.378;2022-12-18T04:42:53;52.40;;;28.80;;
58784;SDS011;44557;51.862;19.378;2022-12-18T04:43:54;53.00;;;27.90;;
58784;SDS011;44557;51.862;19.378;2022-12-18T04:44:56;49.70;;;26.60;;
58784;SDS011;44557;51.862;19.378;2022-12-18T04:46:03;51.30;;;27.80;;
58784;SDS011;44557;51.862;19.378;2022-12-18T04:47:07;49.10;;;26.10;;
58784;SDS011;44557;51.862;19.378;2022-12-18T04:48:08;51.70;;;27.70;;
58784;SDS011;44557;51.862;19.378;2022-12-18T04:49:10;51.30;;;27.80;;
58784;SDS011;44557;51.862;19.378;2022-12-18T04:50:12;49.30;;;26.50;;
58784;SDS011;44557;51.862;19.378;2022-12-18T04:51:13;49.90;;;26.70;;
58784;SDS011;44557;51.862;19.378;2022-12-18T04:52:15;47.60;;;26.60;;
58784;SDS011;44557;51.862;19.378;2022-12-18T04:53:17;51.90;;;27.60;;
58784;SDS011;44557;51.862;19.378;2022-12-18T04:54:18;49.90;;;26.80;;
58784;SDS011;44557;51.862;19.378;2022-12-18T04:55:20;51.40;;;26.40;;
58784;SDS011;44557;51.862;19.378;2022-12-18T04:56:21;51.00;;;25.80;;
58784;SDS011;44557;51.862;19.378;2022-12-18T04:57:23;51.10;;;28.30;;
58784;SDS011;44557;51.862;19.378;2022-12-18T04:58:25;47.30;;;25.60;;
58784;SDS011;44557;51.862;19.378;2022-12-18T04:59:26;44.50;;;25.10;;
58784;SDS011;44557;51.862;19.378;2022-12-18T05:00:28;50.40;;;27.10;;
58784;SDS011;44557;51.862;19.378;2022-12-18T05:01:29;47.80;;;26.10;;
58784;SDS011;44557;51.862;19.378;2022-12-18T05:02:31;46.40;;;25.20;;
58784;SDS011;44557;51.862;19.378;2022-12-18T05:03:33;50.50;;;26.90;;
58784;SDS011;44557;51.862;19.378;2022-12-18T05:04:36;51.40;;;27.00;;
58784;SDS011;44557;51.862;19.378;2022-12-18T05:05:38;46.60;;;24.70;;
58784;SDS011;44557;51.862;19.378;2022-12-18T05:06:39;47.70;;;26.20;;
58784;SDS011;44557;51.862;19.378;2022-12-18T05:07:41;50.80;;;26.80;;
58784;SDS011;44557;51.862;19.378;2022-12-18T05:08:42;49.30;;;26.40;;
58784;SDS011;44557;51.862;19.378;2022-12-18T05:09:44;47.20;;;25.10;;
58784;SDS011;44557;51.862;19.378;2022-12-18T05:10:45;50.10;;;26.70;;
58784;SDS011;44557;51.862;19.378;2022-12-18T05:11:47;56.60;;;27.10;;
58784;SDS011;44557;51.862;19.378;2022-12-18T05:12:48;49.70;;;26.50;;
58784;SDS011;44557;51.862;19.378;2022-12-18T05:13:59;47.80;;;26.10;;
58784;SDS011;44557;51.862;19.378;2022-12-18T05:15:00;47.70;;;25.70;;
58784;SDS011;44557;51.862;19.378;2022-12-18T05:16:05;49.80;;;26.40;;
58784;SDS011;44557;51.862;19.378;2022-12-18T05:17:07;45.50;;;25.90;;
58784;SDS011;44557;51.862;19.378;2022-12-18T05:18:09;48.60;;;26.90;;
58784;SDS011;44557;51.862;19.378;2022-12-18T05:19:10;49.30;;;26.30;;
58784;SDS011;44557;51.862;19.378;2022-12-18T05:20:12;50.90;;;28.70;;
58784;SDS011;44557;51.862;19.378;2022-12-18T05:21:13;53.30;;;27.90;;
58784;SDS011;44557;51.862;19.378;2022-12-18T05:22:15;50.40;;;27.50;;
58784;SDS011;44557;51.862;19.378;2022-12-18T05:23:17;48.30;;;27.30;;
58784;SDS011;44557;51.862;19.378;2022-12-18T05:24:18;52.20;;;27.50;;
58784;SDS011;44557;51.862;19.378;2022-12-18T05:25:20;49.30;;;27.50;;
58784;SDS011;44557;51.862;19.378;2022-12-18T05:26:22;49.20;;;26.70;;
58784;SDS011;44557;51.862;19.378;2022-12-18T05:27:24;53.70;;;29.20;;
58784;SDS011;44557;51.862;19.378;2022-12-18T05:28:27;52.00;;;26.10;;
58784;SDS011;44557;51.862;19.378;2022-12-18T05:29:30;52.60;;;28.30;;
58784;SDS011;44557;51.862;19.378;2022-12-18T05:30:31;52.80;;;28.20;;
58784;SDS011;44557;51.862;19.378;2022-12-18T05:31:33;51.80;;;28.00;;
58784;SDS011;44557;51.862;19.378;2022-12-18T05:32:34;55.00;;;28.20;;
58784;SDS011;44557;51.862;19.378;2022-12-18T05:33:36;53.40;;;28.40;;
58784;SDS011;44557;51.862;19.378;2022-12-18T05:34:38;50.10;;;26.00;;
58784;SDS011;44557;51.862;19.378;2022-12-18T05:35:39;54.30;;;28.50;;
58784;SDS011;44557;51.862;19.378;2022-12-18T05:36:41;50.00;;;27.40;;
58784;SDS011;44557;51.862;19.378;2022-12-18T05:37:42;57.50;;;30.50;;
58784;SDS011;44557;51.862;19.378;2022-12-18T05:38:44;57.10;;;29.40;;
58784;SDS011;44557;51.862;19.378;2022-12-18T05:39:46;55.40;;;29.50;;
58784;SDS011;44557;51.862;19.378;2022-12-18T05:40:50;52.40;;;28.10;;
58784;SDS011;44557;51.862;19.378;2022-12-18T05:41:53;60.00;;;30.50;;
58784;SDS011;44557;51.862;19.378;2022-12-18T05:42:55;60.90;;;31.80;;
58784;SDS011;44557;51.862;19.378;2022-12-18T05:43:56;57.80;;;30.20;;
58784;SDS011;44557;51.862;19.378;2022-12-18T05:44:58;58.50;;;32.10;;
58784;SDS011;44557;51.862;19.378;2022-12-18T05:46:02;57.80;;;31.50;;
58784;SDS011;44557;51.862;19.378;2022-12-18T05:47:08;59.40;;;32.00;;
58784;SDS011;44557;51.862;19.378;2022-12-18T05:48:10;59.00;;;31.90;;
58784;SDS011;44557;51.862;19.378;2022-12-18T05:49:12;58.10;;;29.10;;
58784;SDS011;44557;51.862;19.378;2022-12-18T05:50:14;59.80;;;33.00;;
58784;SDS011;44557;51.862;19.378;2022-12-18T05:51:16;56.50;;;29.30;;
58784;SDS011;44557;51.862;19.378;2022-12-18T05:52:19;54.60;;;29.80;;
58784;SDS011;44557;51.862;19.378;2022-12-18T05:53:20;56.60;;;30.20;;
58784;SDS011;44557;51.862;19.378;2022-12-18T05:54:22;60.70;;;30.80;;
58784;SDS011;44557;51.862;19.378;2022-12-18T05:55:23;57.20;;;30.20;;
58784;SDS011;44557;51.862;19.378;2022-12-18T05:56:25;66.10;;;32.60;;
58784;SDS011;44557;51.862;19.378;2022-12-18T05:57:26;57.20;;;31.30;;
58784;SDS011;44557;51.862;19.378;2022-12-18T05:58:28;58.50;;;31.60;;
58784;SDS011;44557;51.862;19.378;2022-12-18T05:59:30;57.60;;;31.20;;
58784;SDS011;44557;51.862;19.378;2022-12-18T06:00:32;59.40;;;31.40;;
58784;SDS011;44557;51.862;19.378;2022-12-18T06:01:35;61.80;;;31.80;;
58784;SDS011;44557;51.862;19.378;2022-12-18T06:02:37;53.10;;;29.30;;
58784;SDS011;44557;51.862;19.378;2022-12-18T06:03:39;56.00;;;31.00;;
58784;SDS011;44557;51.862;19.378;2022-12-18T06:04:40;62.20;;;32.40;;
58784;SDS011;44557;51.862;19.378;2022-12-18T06:05:43;60.30;;;32.60;;
58784;SDS011;44557;51.862;19.378;2022-12-18T06:06:46;61.40;;;33.10;;
58784;SDS011;44557;51.862;19.378;2022-12-18T06:07:47;63.60;;;32.70;;
58784;SDS011;44557;51.862;19.378;2022-12-18T06:08:49;61.40;;;32.40;;
58784;SDS011;44557;51.862;19.378;2022-12-18T06:09:52;62.90;;;31.70;;
58784;SDS011;44557;51.862;19.378;2022-12-18T06:10:53;68.20;;;34.00;;
58784;SDS011;44557;51.862;19.378;2022-12-18T06:11:55;61.10;;;30.20;;
58784;SDS011;44557;51.862;19.378;2022-12-18T06:12:56;59.60;;;32.80;;
58784;SDS011;44557;51.862;19.378;2022-12-18T06:13:58;62.10;;;33.10;;
58784;SDS011;44557;51.862;19.378;2022-12-18T06:15:00;64.80;;;34.70;;
58784;SDS011;44557;51.862;19.378;2022-12-18T06:16:02;64.50;;;33.90;;
58784;SDS011;44557;51.862;19.378;2022-12-18T06:17:06;69.80;;;34.00;;
58784;SDS011;44557;51.862;19.378;2022-12-18T06:18:07;63.00;;;32.00;;
58784;SDS011;44557;51.862;19.378;2022-12-18T06:19:12;63.80;;;32.70;;
58784;SDS011;44557;51.862;19.378;2022-12-18T06:20:16;66.20;;;33.20;;
58784;SDS011;44557;51.862;19.378;2022-12-18T06:21:18;63.00;;;33.60;;
58784;SDS011;44557;51.862;19.378;2022-12-18T06:22:19;62.60;;;32.90;;
58784;SDS011;44557;51.862;19.378;2022-12-18T06:23:21;60.10;;;31.00;;
58784;SDS011;44557;51.862;19.378;2022-12-18T06:24:23;63.60;;;32.10;;
58784;SDS011;44557;51.862;19.378;2022-12-18T06:25:24;67.80;;;33.70;;
58784;SDS011;44557;51.862;19.378;2022-12-18T06:26:26;66.10;;;32.90;;
58784;SDS011;44557;51.862;19.378;2022-12-18T06:27:27;66.70;;;33.00;;
58784;SDS011;44557;51.862;19.378;2022-12-18T06:28:29;64.20;;;32.60;;
58784;SDS011;44557;51.862;19.378;2022-12-18T06:29:30;65.80;;;34.00;;
58784;SDS011;44557;51.862;19.378;2022-12-18T06:30:32;63.10;;;32.80;;
58784;SDS011;44557;51.862;19.378;2022-12-18T06:31:33;65.60;;;33.80;;